sensor_id;sensor_type;location;lat;lon;timestamp;temperature;humidity
3713;DHT22;1872;51.406;6.856;2022-12-22T00:00:00;9.30;99.90
3713;DHT22;1872;51.406;6.856;2022-12-22T00:02:45;9.30;99.90
3713;DHT22;1872;51.406;6.856;2022-12-22T00:05:32;9.40;99.90
3713;DHT22;1872;51.406;6.856;2022-12-22T00:08:16;9.40;99.90
3713;DHT22;1872;51.406;6.856;2022-12-22T00:11:01;9.30;99.90
3713;DHT22;1872;51.406;6.856;2022-12-22T00:13:45;9.40;99.90
3713;DHT22;1872;51.406;6.856;2022-12-22T00:16:32;9.40;99.90
3713;DHT22;1872;51.406;6.856;2022-12-22T00:19:17;9.30;99.90
3713;DHT22;1872;51.406;6.856;2022-12-22T00:22:11;9.40;99.90
3713;DHT22;1872;51.406;6.856;2022-12-22T00:24:56;9.40;99.90
3713;DHT22;1872;51.406;6.856;2022-12-22T00:27:41;9.30;99.90
3713;DHT22;1872;51.406;6.856;2022-12-22T00:30:25;9.40;99.90
3713;DHT22;1872;51.406;6.856;2022-12-22T00:33:11;9.40;99.90
3713;DHT22;1872;51.406;6.856;2022-12-22T00:35:57;9.40;99.90
3713;DHT22;1872;51.406;6.856;2022-12-22T00:38:41;9.40;99.90
3713;DHT22;1872;51.406;6.856;2022-12-22T00:41:25;9.40;99.90
3713;DHT22;1872;51.406;6.856;2022-12-22T00:44:09;9.50;99.90
3713;DHT22;1872;51.406;6.856;2022-12-22T00:46:53;9.50;99.90
3713;DHT22;1872;51.406;6.856;2022-12-22T00:49:40;9.40;99.90
3713;DHT22;1872;51.406;6.856;2022-12-22T00:52:26;9.50;99.90
3713;DHT22;1872;51.406;6.856;2022-12-22T00:55:19;9.50;99.90
3713;DHT22;1872;51.406;6.856;2022-12-22T00:58:11;9.50;99.90
3713;DHT22;1872;51.406;6.856;2022-12-22T01:00:57;9.50;99.90
3713;DHT22;1872;51.406;6.856;2022-12-22T01:03:41;9.60;99.90
3713;DHT22;1872;51.406;6.856;2022-12-22T01:06:26;9.50;99.90
3713;DHT22;1872;51.406;6.856;2022-12-22T01:09:11;9.50;99.90
3713;DHT22;1872;51.406;6.856;2022-12-22T01:11:56;9.60;99.90
3713;DHT22;1872;51.406;6.856;2022-12-22T01:14:40;9.60;99.90
3713;DHT22;1872;51.406;6.856;2022-12-22T01:17:25;9.60;99.90
3713;DHT22;1872;51.406;6.856;2022-12-22T01:20:09;9.60;99.90
3713;DHT22;1872;51.406;6.856;2022-12-22T01:22:53;9.60;99.90
3713;DHT22;1872;51.406;6.856;2022-12-22T01:25:37;9.60;99.90
3713;DHT22;1872;51.406;6.856;2022-12-22T01:28:22;9.60;99.90
3713;DHT22;1872;51.406;6.856;2022-12-22T01:31:17;9.70;99.90
3713;DHT22;1872;51.406;6.856;2022-12-22T01:34:02;9.70;99.90
3713;DHT22;1872;51.406;6.856;2022-12-22T01:36:47;9.70;99.90
3713;DHT22;1872;51.406;6.856;2022-12-22T01:39:34;9.70;99.90
3713;DHT22;1872;51.406;6.856;2022-12-22T01:42:18;9.70;99.90
3713;DHT22;1872;51.406;6.856;2022-12-22T01:45:30;9.70;99.90
3713;DHT22;1872;51.406;6.856;2022-12-22T01:48:16;9.70;99.90
3713;DHT22;1872;51.406;6.856;2022-12-22T01:51:07;9.70;99.90
3713;DHT22;1872;51.406;6.856;2022-12-22T01:53:54;9.70;99.90
3713;DHT22;1872;51.406;6.856;2022-12-22T01:56:39;9.70;99.90
3713;DHT22;1872;51.406;6.856;2022-12-22T01:59:24;9.70;99.90
3713;DHT22;1872;51.406;6.856;2022-12-22T02:02:09;9.80;99.90
3713;DHT22;1872;51.406;6.856;2022-12-22T02:04:56;9.80;99.90
3713;DHT22;1872;51.406;6.856;2022-12-22T02:07:55;9.80;99.90
3713;DHT22;1872;51.406;6.856;2022-12-22T02:11:26;9.80;99.90
3713;DHT22;1872;51.406;6.856;2022-12-22T02:14:34;9.90;99.90
3713;DHT22;1872;51.406;6.856;2022-12-22T02:20:49;9.80;99.90
3713;DHT22;1872;51.406;6.856;2022-12-22T02:26:41;9.80;99.90
3713;DHT22;1872;51.406;6.856;2022-12-22T02:29:31;9.90;99.90
3713;DHT22;1872;51.406;6.856;2022-12-22T02:32:17;9.80;99.90
3713;DHT22;1872;51.406;6.856;2022-12-22T02:35:01;9.90;99.90
3713;DHT22;1872;51.406;6.856;2022-12-22T02:37:55;9.80;99.90
3713;DHT22;1872;51.406;6.856;2022-12-22T02:47:33;10.00;99.90
3713;DHT22;1872;51.406;6.856;2022-12-22T02:50:21;10.00;99.90
3713;DHT22;1872;51.406;6.856;2022-12-22T02:53:08;10.00;99.90
3713;DHT22;1872;51.406;6.856;2022-12-22T02:56:03;10.00;99.90
3713;DHT22;1872;51.406;6.856;2022-12-22T02:58:48;10.00;99.90
3713;DHT22;1872;51.406;6.856;2022-12-22T03:01:33;10.10;99.90
3713;DHT22;1872;51.406;6.856;2022-12-22T03:04:17;10.10;99.90
3713;DHT22;1872;51.406;6.856;2022-12-22T03:07:01;10.00;99.90
3713;DHT22;1872;51.406;6.856;2022-12-22T03:09:46;10.00;99.90
3713;DHT22;1872;51.406;6.856;2022-12-22T03:12:30;10.00;99.90
3713;DHT22;1872;51.406;6.856;2022-12-22T03:15:14;10.00;99.90
3713;DHT22;1872;51.406;6.856;2022-12-22T03:18:04;10.00;99.90
3713;DHT22;1872;51.406;6.856;2022-12-22T03:20:49;10.00;99.90
3713;DHT22;1872;51.406;6.856;2022-12-22T03:23:33;10.00;99.90
3713;DHT22;1872;51.406;6.856;2022-12-22T03:26:17;10.00;99.90
3713;DHT22;1872;51.406;6.856;2022-12-22T03:28:44;10.00;99.90
3713;DHT22;1872;51.406;6.856;2022-12-22T03:31:10;10.00;99.90
3713;DHT22;1872;51.406;6.856;2022-12-22T03:33:36;10.00;99.90
3713;DHT22;1872;51.406;6.856;2022-12-22T03:36:02;10.00;99.90
3713;DHT22;1872;51.406;6.856;2022-12-22T03:38:28;10.00;99.90
3713;DHT22;1872;51.406;6.856;2022-12-22T03:40:54;10.00;99.90
3713;DHT22;1872;51.406;6.856;2022-12-22T03:43:21;10.00;99.90
3713;DHT22;1872;51.406;6.856;2022-12-22T03:46:05;10.00;99.90
3713;DHT22;1872;51.406;6.856;2022-12-22T03:48:51;10.00;99.90
3713;DHT22;1872;51.406;6.856;2022-12-22T03:54:05;10.00;99.90
3713;DHT22;1872;51.406;6.856;2022-12-22T03:56:31;10.00;99.90
3713;DHT22;1872;51.406;6.856;2022-12-22T03:58:57;10.00;99.90
3713;DHT22;1872;51.406;6.856;2022-12-22T04:01:22;10.00;99.90
3713;DHT22;1872;51.406;6.856;2022-12-22T04:03:49;10.00;99.90
3713;DHT22;1872;51.406;6.856;2022-12-22T04:06:18;10.00;99.90
3713;DHT22;1872;51.406;6.856;2022-12-22T04:08:44;10.00;99.90
3713;DHT22;1872;51.406;6.856;2022-12-22T04:11:14;10.00;99.90
3713;DHT22;1872;51.406;6.856;2022-12-22T04:13:58;10.00;99.90
3713;DHT22;1872;51.406;6.856;2022-12-22T04:16:24;10.10;99.90
3713;DHT22;1872;51.406;6.856;2022-12-22T04:18:51;10.10;99.90
3713;DHT22;1872;51.406;6.856;2022-12-22T04:21:17;10.10;99.90
3713;DHT22;1872;51.406;6.856;2022-12-22T04:23:42;10.10;99.90
3713;DHT22;1872;51.406;6.856;2022-12-22T04:26:08;10.10;99.90
3713;DHT22;1872;51.406;6.856;2022-12-22T04:28:34;10.10;99.90
3713;DHT22;1872;51.406;6.856;2022-12-22T04:31:00;10.10;99.90
3713;DHT22;1872;51.406;6.856;2022-12-22T04:33:25;10.20;99.90
3713;DHT22;1872;51.406;6.856;2022-12-22T04:35:51;10.10;99.90
3713;DHT22;1872;51.406;6.856;2022-12-22T04:38:17;10.20;99.90
3713;DHT22;1872;51.406;6.856;2022-12-22T04:40:42;10.10;99.90
3713;DHT22;1872;51.406;6.856;2022-12-22T04:43:08;10.10;99.90
3713;DHT22;1872;51.406;6.856;2022-12-22T04:45:34;10.10;99.90
3713;DHT22;1872;51.406;6.856;2022-12-22T04:48:00;10.10;99.90
3713;DHT22;1872;51.406;6.856;2022-12-22T04:50:25;10.20;99.90
3713;DHT22;1872;51.406;6.856;2022-12-22T04:52:51;10.10;99.90
3713;DHT22;1872;51.406;6.856;2022-12-22T04:55:17;10.20;99.90
3713;DHT22;1872;51.406;6.856;2022-12-22T04:57:42;10.20;99.90
3713;DHT22;1872;51.406;6.856;2022-12-22T05:00:09;10.20;99.90
3713;DHT22;1872;51.406;6.856;2022-12-22T05:02:35;10.20;99.90
3713;DHT22;1872;51.406;6.856;2022-12-22T05:05:01;10.20;99.90
3713;DHT22;1872;51.406;6.856;2022-12-22T05:07:26;10.20;99.90
3713;DHT22;1872;51.406;6.856;2022-12-22T05:09:52;10.30;99.90
3713;DHT22;1872;51.406;6.856;2022-12-22T05:12:18;10.30;99.90
3713;DHT22;1872;51.406;6.856;2022-12-22T05:15:02;10.30;99.90
3713;DHT22;1872;51.406;6.856;2022-12-22T05:17:28;10.30;99.90
3713;DHT22;1872;51.406;6.856;2022-12-22T05:19:53;10.30;99.90
3713;DHT22;1872;51.406;6.856;2022-12-22T05:22:19;10.30;99.90
3713;DHT22;1872;51.406;6.856;2022-12-22T05:24:45;10.30;99.90
3713;DHT22;1872;51.406;6.856;2022-12-22T05:27:11;10.30;99.90
3713;DHT22;1872;51.406;6.856;2022-12-22T05:29:37;10.30;99.90
3713;DHT22;1872;51.406;6.856;2022-12-22T05:32:02;10.30;99.90
3713;DHT22;1872;51.406;6.856;2022-12-22T05:34:28;10.30;99.90
3713;DHT22;1872;51.406;6.856;2022-12-22T05:36:54;10.30;99.90
3713;DHT22;1872;51.406;6.856;2022-12-22T05:39:20;10.30;99.90
3713;DHT22;1872;51.406;6.856;2022-12-22T05:41:45;10.30;99.90
3713;DHT22;1872;51.406;6.856;2022-12-22T05:44:11;10.30;99.90
3713;DHT22;1872;51.406;6.856;2022-12-22T05:46:36;10.30;99.90
3713;DHT22;1872;51.406;6.856;2022-12-22T05:49:02;10.30;99.90
3713;DHT22;1872;51.406;6.856;2022-12-22T05:51:28;10.30;99.90
3713;DHT22;1872;51.406;6.856;2022-12-22T05:53:53;10.30;99.90
3713;DHT22;1872;51.406;6.856;2022-12-22T05:56:19;10.30;99.90
3713;DHT22;1872;51.406;6.856;2022-12-22T05:58:45;10.30;99.90
3713;DHT22;1872;51.406;6.856;2022-12-22T06:01:10;10.30;99.90
3713;DHT22;1872;51.406;6.856;2022-12-22T06:03:36;10.30;99.90
3713;DHT22;1872;51.406;6.856;2022-12-22T06:06:02;10.30;99.90
3713;DHT22;1872;51.406;6.856;2022-12-22T06:08:28;10.30;99.90
3713;DHT22;1872;51.406;6.856;2022-12-22T06:10:55;10.30;99.90
3713;DHT22;1872;51.406;6.856;2022-12-22T06:13:21;10.40;99.90
3713;DHT22;1872;51.406;6.856;2022-12-22T06:15:48;10.40;99.90
3713;DHT22;1872;51.406;6.856;2022-12-22T06:18:13;10.40;99.90
3713;DHT22;1872;51.406;6.856;2022-12-22T06:20:39;10.40;99.90
3713;DHT22;1872;51.406;6.856;2022-12-22T06:23:05;10.40;99.90
3713;DHT22;1872;51.406;6.856;2022-12-22T06:25:32;10.40;99.90
3713;DHT22;1872;51.406;6.856;2022-12-22T06:27:57;10.40;99.90
3713;DHT22;1872;51.406;6.856;2022-12-22T06:30:23;10.40;99.90
3713;DHT22;1872;51.406;6.856;2022-12-22T06:32:50;10.40;99.90
3713;DHT22;1872;51.406;6.856;2022-12-22T06:35:15;10.50;99.90
3713;DHT22;1872;51.406;6.856;2022-12-22T06:37:41;10.50;99.90
3713;DHT22;1872;51.406;6.856;2022-12-22T06:40:08;10.50;99.90
3713;DHT22;1872;51.406;6.856;2022-12-22T06:42:33;10.50;99.90
3713;DHT22;1872;51.406;6.856;2022-12-22T06:45:18;10.50;99.90
3713;DHT22;1872;51.406;6.856;2022-12-22T06:47:45;10.50;99.90
3713;DHT22;1872;51.406;6.856;2022-12-22T06:50:14;10.50;99.90
3713;DHT22;1872;51.406;6.856;2022-12-22T06:52:43;10.50;99.90
3713;DHT22;1872;51.406;6.856;2022-12-22T06:55:09;10.50;99.90
3713;DHT22;1872;51.406;6.856;2022-12-22T06:57:34;10.50;99.90
3713;DHT22;1872;51.406;6.856;2022-12-22T07:00:00;10.50;99.90
3713;DHT22;1872;51.406;6.856;2022-12-22T07:02:26;10.50;99.90
3713;DHT22;1872;51.406;6.856;2022-12-22T07:04:51;10.50;99.90
3713;DHT22;1872;51.406;6.856;2022-12-22T07:07:17;10.50;99.90
3713;DHT22;1872;51.406;6.856;2022-12-22T07:09:43;10.50;99.90
3713;DHT22;1872;51.406;6.856;2022-12-22T07:12:10;10.50;99.90
3713;DHT22;1872;51.406;6.856;2022-12-22T07:14:37;10.60;99.90
3713;DHT22;1872;51.406;6.856;2022-12-22T07:17:02;10.50;99.90
3713;DHT22;1872;51.406;6.856;2022-12-22T07:19:28;10.50;99.90
3713;DHT22;1872;51.406;6.856;2022-12-22T07:21:54;10.50;99.90
3713;DHT22;1872;51.406;6.856;2022-12-22T07:24:19;10.50;99.90
3713;DHT22;1872;51.406;6.856;2022-12-22T07:26:49;10.50;99.90
3713;DHT22;1872;51.406;6.856;2022-12-22T07:29:15;10.60;99.90
3713;DHT22;1872;51.406;6.856;2022-12-22T07:31:40;10.60;99.90
3713;DHT22;1872;51.406;6.856;2022-12-22T07:34:06;10.60;99.90
3713;DHT22;1872;51.406;6.856;2022-12-22T07:36:32;10.60;99.90
3713;DHT22;1872;51.406;6.856;2022-12-22T07:38:57;10.60;99.90
3713;DHT22;1872;51.406;6.856;2022-12-22T07:41:23;10.60;99.90
3713;DHT22;1872;51.406;6.856;2022-12-22T07:44:07;10.60;99.90
3713;DHT22;1872;51.406;6.856;2022-12-22T07:46:35;10.60;99.90
3713;DHT22;1872;51.406;6.856;2022-12-22T07:49:01;10.60;99.90
3713;DHT22;1872;51.406;6.856;2022-12-22T07:51:45;10.60;99.90
3713;DHT22;1872;51.406;6.856;2022-12-22T07:54:13;10.50;99.90
3713;DHT22;1872;51.406;6.856;2022-12-22T07:56:39;10.50;99.90
3713;DHT22;1872;51.406;6.856;2022-12-22T07:59:06;10.50;99.90
3713;DHT22;1872;51.406;6.856;2022-12-22T08:01:32;10.50;99.90
3713;DHT22;1872;51.406;6.856;2022-12-22T08:03:57;10.50;99.90
3713;DHT22;1872;51.406;6.856;2022-12-22T08:06:24;10.50;99.90
3713;DHT22;1872;51.406;6.856;2022-12-22T08:08:50;10.50;99.90
3713;DHT22;1872;51.406;6.856;2022-12-22T08:11:15;10.50;99.90
3713;DHT22;1872;51.406;6.856;2022-12-22T08:13:41;10.50;99.90
3713;DHT22;1872;51.406;6.856;2022-12-22T08:16:10;10.50;99.90
3713;DHT22;1872;51.406;6.856;2022-12-22T08:18:37;10.50;99.90
3713;DHT22;1872;51.406;6.856;2022-12-22T08:21:06;10.50;99.90
3713;DHT22;1872;51.406;6.856;2022-12-22T08:23:32;10.50;99.90
3713;DHT22;1872;51.406;6.856;2022-12-22T08:26:03;10.50;99.90
3713;DHT22;1872;51.406;6.856;2022-12-22T08:28:31;10.50;99.90
3713;DHT22;1872;51.406;6.856;2022-12-22T08:30:59;10.50;99.90
3713;DHT22;1872;51.406;6.856;2022-12-22T08:33:26;10.50;99.90
3713;DHT22;1872;51.406;6.856;2022-12-22T08:35:54;10.40;99.90
3713;DHT22;1872;51.406;6.856;2022-12-22T08:38:21;10.40;99.90
3713;DHT22;1872;51.406;6.856;2022-12-22T08:40:47;10.40;99.90
3713;DHT22;1872;51.406;6.856;2022-12-22T08:43:14;10.40;99.90
3713;DHT22;1872;51.406;6.856;2022-12-22T08:45:41;10.40;99.90
3713;DHT22;1872;51.406;6.856;2022-12-22T08:48:08;10.40;99.90
3713;DHT22;1872;51.406;6.856;2022-12-22T08:50:34;10.40;99.90
3713;DHT22;1872;51.406;6.856;2022-12-22T08:53:05;10.40;99.90
3713;DHT22;1872;51.406;6.856;2022-12-22T08:55:31;10.50;99.90
3713;DHT22;1872;51.406;6.856;2022-12-22T08:57:56;10.50;99.90
3713;DHT22;1872;51.406;6.856;2022-12-22T09:00:23;10.40;99.90
3713;DHT22;1872;51.406;6.856;2022-12-22T09:02:49;10.40;99.90
3713;DHT22;1872;51.406;6.856;2022-12-22T09:05:14;10.40;99.90
3713;DHT22;1872;51.406;6.856;2022-12-22T09:07:40;10.40;99.90
3713;DHT22;1872;51.406;6.856;2022-12-22T09:10:08;10.50;99.90
3713;DHT22;1872;51.406;6.856;2022-12-22T09:12:34;10.50;99.90
3713;DHT22;1872;51.406;6.856;2022-12-22T09:15:00;10.50;99.90
3713;DHT22;1872;51.406;6.856;2022-12-22T09:17:26;10.60;99.90
3713;DHT22;1872;51.406;6.856;2022-12-22T09:19:51;10.60;99.90
3713;DHT22;1872;51.406;6.856;2022-12-22T09:22:17;10.70;99.90
3713;DHT22;1872;51.406;6.856;2022-12-22T09:24:43;10.70;99.90
3713;DHT22;1872;51.406;6.856;2022-12-22T09:27:09;10.70;99.90
3713;DHT22;1872;51.406;6.856;2022-12-22T09:29:35;10.80;99.90
3713;DHT22;1872;51.406;6.856;2022-12-22T09:32:02;10.80;99.90
3713;DHT22;1872;51.406;6.856;2022-12-22T09:34:30;10.90;99.90
3713;DHT22;1872;51.406;6.856;2022-12-22T09:36:57;10.90;99.90
3713;DHT22;1872;51.406;6.856;2022-12-22T09:39:23;10.90;99.90
3713;DHT22;1872;51.406;6.856;2022-12-22T09:41:53;10.90;99.90
3713;DHT22;1872;51.406;6.856;2022-12-22T09:44:40;10.90;99.90
3713;DHT22;1872;51.406;6.856;2022-12-22T09:47:26;10.90;99.90
3713;DHT22;1872;51.406;6.856;2022-12-22T09:49:55;10.80;99.90
3713;DHT22;1872;51.406;6.856;2022-12-22T09:55:03;10.80;99.90
3713;DHT22;1872;51.406;6.856;2022-12-22T09:57:31;10.70;99.90
3713;DHT22;1872;51.406;6.856;2022-12-22T10:00:01;10.70;99.90
3713;DHT22;1872;51.406;6.856;2022-12-22T10:02:36;10.70;99.90
3713;DHT22;1872;51.406;6.856;2022-12-22T10:07:39;10.70;99.90
3713;DHT22;1872;51.406;6.856;2022-12-22T10:10:23;10.70;99.90
3713;DHT22;1872;51.406;6.856;2022-12-22T10:12:50;10.70;99.90
3713;DHT22;1872;51.406;6.856;2022-12-22T10:15:16;10.70;99.90
3713;DHT22;1872;51.406;6.856;2022-12-22T10:17:42;10.60;99.90
3713;DHT22;1872;51.406;6.856;2022-12-22T10:20:24;10.60;99.90
3713;DHT22;1872;51.406;6.856;2022-12-22T10:28:04;10.60;99.90
3713;DHT22;1872;51.406;6.856;2022-12-22T10:30:36;10.60;99.90
3713;DHT22;1872;51.406;6.856;2022-12-22T10:33:16;10.60;99.90
3713;DHT22;1872;51.406;6.856;2022-12-22T10:35:56;10.50;99.90
3713;DHT22;1872;51.406;6.856;2022-12-22T10:38:35;10.50;99.90
3713;DHT22;1872;51.406;6.856;2022-12-22T10:41:07;10.50;99.90
3713;DHT22;1872;51.406;6.856;2022-12-22T10:43:44;10.50;99.90
3713;DHT22;1872;51.406;6.856;2022-12-22T10:46:11;10.50;99.90
3713;DHT22;1872;51.406;6.856;2022-12-22T10:48:38;10.60;99.90
3713;DHT22;1872;51.406;6.856;2022-12-22T10:51:06;10.50;99.90
3713;DHT22;1872;51.406;6.856;2022-12-22T10:53:55;10.50;99.90
3713;DHT22;1872;51.406;6.856;2022-12-22T10:56:29;10.50;99.90
3713;DHT22;1872;51.406;6.856;2022-12-22T11:01:31;10.50;99.90
3713;DHT22;1872;51.406;6.856;2022-12-22T11:04:13;10.40;99.90
3713;DHT22;1872;51.406;6.856;2022-12-22T11:06:41;10.40;99.90
3713;DHT22;1872;51.406;6.856;2022-12-22T11:09:09;10.40;99.90
3713;DHT22;1872;51.406;6.856;2022-12-22T11:12:04;10.40;99.90
3713;DHT22;1872;51.406;6.856;2022-12-22T11:37:38;10.40;99.90
3713;DHT22;1872;51.406;6.856;2022-12-22T11:45:42;10.50;99.90
3713;DHT22;1872;51.406;6.856;2022-12-22T11:48:51;10.50;99.90
3713;DHT22;1872;51.406;6.856;2022-12-22T11:57:14;10.70;99.90
3713;DHT22;1872;51.406;6.856;2022-12-22T12:05:21;10.60;99.90
3713;DHT22;1872;51.406;6.856;2022-12-22T12:08:37;10.50;99.90
3713;DHT22;1872;51.406;6.856;2022-12-22T12:11:38;10.50;99.90
3713;DHT22;1872;51.406;6.856;2022-12-22T12:14:37;10.40;99.90
3713;DHT22;1872;51.406;6.856;2022-12-22T12:25:57;10.20;99.90
3713;DHT22;1872;51.406;6.856;2022-12-22T12:31:06;10.10;99.90
3713;DHT22;1872;51.406;6.856;2022-12-22T12:36:16;10.10;99.90
3713;DHT22;1872;51.406;6.856;2022-12-22T12:41:31;10.20;99.90
3713;DHT22;1872;51.406;6.856;2022-12-22T12:44:01;10.30;99.90
3713;DHT22;1872;51.406;6.856;2022-12-22T12:51:59;10.50;99.90
3713;DHT22;1872;51.406;6.856;2022-12-22T13:10:48;10.50;99.90
3713;DHT22;1872;51.406;6.856;2022-12-22T13:24:16;10.40;99.90
3713;DHT22;1872;51.406;6.856;2022-12-22T13:26:26;10.30;99.90
3713;DHT22;1872;51.406;6.856;2022-12-22T13:28:56;10.30;99.90
3713;DHT22;1872;51.406;6.856;2022-12-22T13:31:30;10.30;99.90
3713;DHT22;1872;51.406;6.856;2022-12-22T13:36:48;10.30;99.90
3713;DHT22;1872;51.406;6.856;2022-12-22T13:39:15;10.30;99.90
3713;DHT22;1872;51.406;6.856;2022-12-22T13:41:43;10.30;99.90
3713;DHT22;1872;51.406;6.856;2022-12-22T13:44:24;10.40;99.90
3713;DHT22;1872;51.406;6.856;2022-12-22T13:46:53;10.40;99.90
3713;DHT22;1872;51.406;6.856;2022-12-22T13:49:22;10.40;99.90
3713;DHT22;1872;51.406;6.856;2022-12-22T13:51:50;10.50;99.90
3713;DHT22;1872;51.406;6.856;2022-12-22T13:54:31;10.40;99.90
3713;DHT22;1872;51.406;6.856;2022-12-22T13:56:59;10.40;99.90
3713;DHT22;1872;51.406;6.856;2022-12-22T13:59:31;10.30;99.90
3713;DHT22;1872;51.406;6.856;2022-12-22T14:04:34;10.20;99.90
3713;DHT22;1872;51.406;6.856;2022-12-22T14:07:19;10.20;99.90
3713;DHT22;1872;51.406;6.856;2022-12-22T14:09:49;10.20;99.90
3713;DHT22;1872;51.406;6.856;2022-12-22T14:12:18;10.20;99.90
3713;DHT22;1872;51.406;6.856;2022-12-22T14:14:47;10.20;99.90
3713;DHT22;1872;51.406;6.856;2022-12-22T14:17:25;10.20;99.90
3713;DHT22;1872;51.406;6.856;2022-12-22T14:19:54;10.20;99.90
3713;DHT22;1872;51.406;6.856;2022-12-22T14:25:16;10.10;99.90
3713;DHT22;1872;51.406;6.856;2022-12-22T14:28:10;10.10;99.90
3713;DHT22;1872;51.406;6.856;2022-12-22T14:30:44;10.10;99.90
3713;DHT22;1872;51.406;6.856;2022-12-22T14:33:27;10.10;99.90
3713;DHT22;1872;51.406;6.856;2022-12-22T14:36:12;10.10;99.90
3713;DHT22;1872;51.406;6.856;2022-12-22T14:38:41;10.10;99.90
3713;DHT22;1872;51.406;6.856;2022-12-22T14:41:17;10.10;99.90
3713;DHT22;1872;51.406;6.856;2022-12-22T14:44:03;10.10;99.90
3713;DHT22;1872;51.406;6.856;2022-12-22T14:46:30;10.10;99.90
3713;DHT22;1872;51.406;6.856;2022-12-22T14:48:57;10.00;99.90
3713;DHT22;1872;51.406;6.856;2022-12-22T14:51:24;10.00;99.90
3713;DHT22;1872;51.406;6.856;2022-12-22T14:53:56;10.00;99.90
3713;DHT22;1872;51.406;6.856;2022-12-22T14:56:24;10.00;99.90
3713;DHT22;1872;51.406;6.856;2022-12-22T14:58:50;9.90;99.90
3713;DHT22;1872;51.406;6.856;2022-12-22T15:01:23;9.90;99.90
3713;DHT22;1872;51.406;6.856;2022-12-22T15:04:17;9.80;99.90
3713;DHT22;1872;51.406;6.856;2022-12-22T15:06:44;9.80;99.90
3713;DHT22;1872;51.406;6.856;2022-12-22T15:11:43;9.70;99.90
3713;DHT22;1872;51.406;6.856;2022-12-22T15:14:15;9.70;99.90
3713;DHT22;1872;51.406;6.856;2022-12-22T15:16:43;9.60;99.90
3713;DHT22;1872;51.406;6.856;2022-12-22T15:19:18;9.70;99.90
3713;DHT22;1872;51.406;6.856;2022-12-22T15:21:48;9.60;99.90
3713;DHT22;1872;51.406;6.856;2022-12-22T15:24:15;9.60;99.90
3713;DHT22;1872;51.406;6.856;2022-12-22T15:26:43;9.60;99.90
3713;DHT22;1872;51.406;6.856;2022-12-22T15:29:09;9.60;99.90
3713;DHT22;1872;51.406;6.856;2022-12-22T15:31:36;9.60;99.90
3713;DHT22;1872;51.406;6.856;2022-12-22T15:34:03;9.60;99.90
3713;DHT22;1872;51.406;6.856;2022-12-22T15:36:34;9.60;99.90
3713;DHT22;1872;51.406;6.856;2022-12-22T15:38:59;9.50;99.90
3713;DHT22;1872;51.406;6.856;2022-12-22T15:41:25;9.50;99.90
3713;DHT22;1872;51.406;6.856;2022-12-22T15:43:51;9.50;99.90
3713;DHT22;1872;51.406;6.856;2022-12-22T15:46:16;9.50;99.90
3713;DHT22;1872;51.406;6.856;2022-12-22T15:48:44;9.50;99.90
3713;DHT22;1872;51.406;6.856;2022-12-22T15:51:19;9.50;99.90
3713;DHT22;1872;51.406;6.856;2022-12-22T15:53:45;9.50;99.90
3713;DHT22;1872;51.406;6.856;2022-12-22T15:56:14;9.50;99.90
3713;DHT22;1872;51.406;6.856;2022-12-22T15:58:44;9.50;99.90
3713;DHT22;1872;51.406;6.856;2022-12-22T16:01:11;9.50;99.90
3713;DHT22;1872;51.406;6.856;2022-12-22T16:03:37;9.60;99.90
3713;DHT22;1872;51.406;6.856;2022-12-22T16:06:04;9.60;99.90
3713;DHT22;1872;51.406;6.856;2022-12-22T16:08:32;9.60;99.90
3713;DHT22;1872;51.406;6.856;2022-12-22T16:11:02;9.50;99.90
3713;DHT22;1872;51.406;6.856;2022-12-22T16:13:30;9.50;99.90
3713;DHT22;1872;51.406;6.856;2022-12-22T16:15:57;9.50;99.90
3713;DHT22;1872;51.406;6.856;2022-12-22T16:18:23;9.50;99.90
3713;DHT22;1872;51.406;6.856;2022-12-22T16:20:50;9.60;99.90
3713;DHT22;1872;51.406;6.856;2022-12-22T16:23:20;9.60;99.90
3713;DHT22;1872;51.406;6.856;2022-12-22T16:25:47;9.60;99.90
3713;DHT22;1872;51.406;6.856;2022-12-22T16:28:23;9.50;99.90
3713;DHT22;1872;51.406;6.856;2022-12-22T16:34:11;9.50;99.90
3713;DHT22;1872;51.406;6.856;2022-12-22T16:36:37;9.50;99.90
3713;DHT22;1872;51.406;6.856;2022-12-22T16:39:03;9.40;99.90
3713;DHT22;1872;51.406;6.856;2022-12-22T16:41:29;9.40;99.90
3713;DHT22;1872;51.406;6.856;2022-12-22T16:43:56;9.40;99.90
3713;DHT22;1872;51.406;6.856;2022-12-22T16:46:24;9.40;99.90
3713;DHT22;1872;51.406;6.856;2022-12-22T16:48:55;9.40;99.90
3713;DHT22;1872;51.406;6.856;2022-12-22T16:51:27;9.40;99.90
3713;DHT22;1872;51.406;6.856;2022-12-22T16:53:56;9.40;99.90
3713;DHT22;1872;51.406;6.856;2022-12-22T16:56:24;9.30;99.90
3713;DHT22;1872;51.406;6.856;2022-12-22T16:58:56;9.30;99.90
3713;DHT22;1872;51.406;6.856;2022-12-22T17:04:01;9.30;99.90
3713;DHT22;1872;51.406;6.856;2022-12-22T17:06:28;9.30;99.90
3713;DHT22;1872;51.406;6.856;2022-12-22T17:08:58;9.30;99.90
3713;DHT22;1872;51.406;6.856;2022-12-22T17:11:25;9.30;99.90
3713;DHT22;1872;51.406;6.856;2022-12-22T17:14:00;9.30;99.90
3713;DHT22;1872;51.406;6.856;2022-12-22T17:16:27;9.30;99.90
3713;DHT22;1872;51.406;6.856;2022-12-22T17:18:53;9.20;99.90
3713;DHT22;1872;51.406;6.856;2022-12-22T17:21:19;9.20;99.90
3713;DHT22;1872;51.406;6.856;2022-12-22T17:23:53;9.20;99.90
3713;DHT22;1872;51.406;6.856;2022-12-22T17:26:21;9.20;99.90
3713;DHT22;1872;51.406;6.856;2022-12-22T17:28:49;9.20;99.90
3713;DHT22;1872;51.406;6.856;2022-12-22T17:31:21;9.20;99.90
3713;DHT22;1872;51.406;6.856;2022-12-22T17:33:47;9.20;99.90
3713;DHT22;1872;51.406;6.856;2022-12-22T17:38:44;9.20;99.90
3713;DHT22;1872;51.406;6.856;2022-12-22T17:41:13;9.20;99.90
3713;DHT22;1872;51.406;6.856;2022-12-22T17:43:40;9.30;99.90
3713;DHT22;1872;51.406;6.856;2022-12-22T17:46:13;9.30;99.90
3713;DHT22;1872;51.406;6.856;2022-12-22T17:48:42;9.30;99.90
3713;DHT22;1872;51.406;6.856;2022-12-22T17:51:21;9.30;99.90
3713;DHT22;1872;51.406;6.856;2022-12-22T17:53:48;9.20;99.90
3713;DHT22;1872;51.406;6.856;2022-12-22T17:56:24;9.20;99.90
3713;DHT22;1872;51.406;6.856;2022-12-22T17:58:50;9.20;99.90
3713;DHT22;1872;51.406;6.856;2022-12-22T18:01:28;9.20;99.90
3713;DHT22;1872;51.406;6.856;2022-12-22T18:03:55;9.30;99.90
3713;DHT22;1872;51.406;6.856;2022-12-22T18:06:24;9.30;99.90
3713;DHT22;1872;51.406;6.856;2022-12-22T18:08:52;9.30;99.90
3713;DHT22;1872;51.406;6.856;2022-12-22T18:11:18;9.30;99.90
3713;DHT22;1872;51.406;6.856;2022-12-22T18:13:44;9.30;99.90
3713;DHT22;1872;51.406;6.856;2022-12-22T18:16:13;9.30;99.90
3713;DHT22;1872;51.406;6.856;2022-12-22T18:18:40;9.30;99.90
3713;DHT22;1872;51.406;6.856;2022-12-22T18:21:18;9.30;99.90
3713;DHT22;1872;51.406;6.856;2022-12-22T18:23:45;9.40;99.90
3713;DHT22;1872;51.406;6.856;2022-12-22T18:26:25;9.40;99.90
3713;DHT22;1872;51.406;6.856;2022-12-22T18:28:54;9.40;99.90
3713;DHT22;1872;51.406;6.856;2022-12-22T18:31:21;9.40;99.90
3713;DHT22;1872;51.406;6.856;2022-12-22T18:33:47;9.40;99.90
3713;DHT22;1872;51.406;6.856;2022-12-22T18:36:17;9.40;99.90
3713;DHT22;1872;51.406;6.856;2022-12-22T18:38:46;9.30;99.90
3713;DHT22;1872;51.406;6.856;2022-12-22T18:41:18;9.30;99.90
3713;DHT22;1872;51.406;6.856;2022-12-22T18:43:45;9.30;99.90
3713;DHT22;1872;51.406;6.856;2022-12-22T18:46:11;9.30;99.90
3713;DHT22;1872;51.406;6.856;2022-12-22T18:48:38;9.40;99.90
3713;DHT22;1872;51.406;6.856;2022-12-22T18:51:23;9.30;99.90
3713;DHT22;1872;51.406;6.856;2022-12-22T18:53:51;9.40;99.90
3713;DHT22;1872;51.406;6.856;2022-12-22T18:56:18;9.40;99.90
3713;DHT22;1872;51.406;6.856;2022-12-22T18:58:44;9.30;99.90